Arnolds Park, IA (51331)

4:49 AM CDT on April 25, 2015 (GMT -0500)
Milford Fire Station | | Change Station
CLOSE
Current Station
Personal Weather Station
Location: Milford, IA
Elevation: 1443 ft
Nearby Weather Stations

Elev 1443 ft 43.33 °N, 95.15 °W | Updated 12 seconds ago

Overcast
Overcast
42.9 °F
Feels Like 40 °F
N
5.0
Wind Variable Wind from SW
Gusts 18.0 mph

Today
High -- | Low -- °F
--% Chance of Precip.
Yesterday
High -- | Low -- °F
Precip. -- in
6:22 AM 8:15 PM
Waxing Crescent, 44% visible
Pressure 29.65 in
Visibility 9.0 miles
Clouds Overcast 1100 ft
Windchill 40 °F
Dew Point 40 °F
Humidity 91%
Rainfall 0.00 in
Snow Depth Not available.
UV 0 out of 12
Pollen 9.20 out of 12
Air Quality Not available.
Flu Activity Local Activity
METAR KSPW 250853Z AUTO 07016KT 9SM OVC011 07/05 A2964 RMK AO2 CIG 009V014 SLP039 T00720050 56006 TSNO

More Conditions Fewer Conditions

Pressure 29.65 in
Visibility 9.0 miles
Clouds Overcast 1100 ft
Windchill 40 °F
Dew Point 40 °F
Humidity 91%
Rainfall 0.00 in
Snow Depth Not available.
UV 0 out of 12
Pollen 9.20 out of 12
Air Quality Not available.
Flu Activity Local Activity
METAR KSPW 250853Z AUTO 07016KT 9SM OVC011 07/05 A2964 RMK AO2 CIG 009V014 SLP039 T00720050 56006 TSNO

More Conditions Fewer Conditions

10-Day Weather Forecast

Almanac

Astronomy

Apr. 25, 2015 Rise Set
Actual Time
Civil Twilight
Nautical Twilight
Astronomical Twilight
Moon
Length of Visible Light
Length of Day
Tomorrow will be .
, % of the Moon is Illuminated

Today's Extremes

State Highs State Lows

Community

WunderPhotos

Upload Photos

1,816,630 photos uploaded!

WunderBlogs® & News

Nearby

Air Quality

  Air Quality AQ Index Pollutant
Not available.

Snow Depth

Station Depth Elevation

Earthquake Activity

City Distance Mag. Time & Date
Minimum magnitude displayed is 2.5.

Coastal Water Temperatures

Place Temperature

Stations

Nearby Weather Stations

Station Location Temp. Windchill Dew Point Humidity Wind Precip. Elev Updated Type